地図

経路データ

SID SEASON NUMBER BASIN SUBBASIN NAME ISO_TIME NATURE LAT LON WMO_WIND WMO_PRES WMO_AGENCY TRACK_TYPE DIST2LAND LANDFALL IFLAG USA_AGENCY USA_ATCF_ID USA_LAT USA_LON USA_RECORD USA_STATUS USA_WIND USA_PRES USA_SSHS USA_R34_NE USA_R34_SE USA_R34_SW USA_R34_NW USA_R50_NE USA_R50_SE USA_R50_SW USA_R50_NW USA_R64_NE USA_R64_SE USA_R64_SW USA_R64_NW USA_POCI USA_ROCI USA_RMW USA_EYE TOKYO_LAT TOKYO_LON TOKYO_GRADE TOKYO_WIND TOKYO_PRES TOKYO_R50_DIR TOKYO_R50_LONG TOKYO_R50_SHORT TOKYO_R30_DIR TOKYO_R30_LONG TOKYO_R30_SHORT TOKYO_LAND CMA_LAT CMA_LON CMA_CAT CMA_WIND CMA_PRES HKO_LAT HKO_LON HKO_CAT HKO_WIND HKO_PRES NEWDELHI_LAT NEWDELHI_LON NEWDELHI_GRADE NEWDELHI_WIND NEWDELHI_PRES NEWDELHI_CI NEWDELHI_DP NEWDELHI_POCI REUNION_LAT REUNION_LON REUNION_TYPE REUNION_WIND REUNION_PRES REUNION_TNUM REUNION_CI REUNION_RMW REUNION_R34_NE REUNION_R34_SE REUNION_R34_SW REUNION_R34_NW REUNION_R50_NE REUNION_R50_SE REUNION_R50_SW REUNION_R50_NW REUNION_R64_NE REUNION_R64_SE REUNION_R64_SW REUNION_R64_NW BOM_LAT BOM_LON BOM_TYPE BOM_WIND BOM_PRES BOM_TNUM BOM_CI BOM_RMW BOM_R34_NE BOM_R34_SE BOM_R34_SW BOM_R34_NW BOM_R50_NE BOM_R50_SE BOM_R50_SW BOM_R50_NW BOM_R64_NE BOM_R64_SE BOM_R64_SW BOM_R64_NW BOM_ROCI BOM_POCI BOM_EYE BOM_POS_METHOD BOM_PRES_METHOD NADI_LAT NADI_LON NADI_CAT NADI_WIND NADI_PRES WELLINGTON_LAT WELLINGTON_LON WELLINGTON_WIND WELLINGTON_PRES DS824_LAT DS824_LON DS824_STAGE DS824_WIND DS824_PRES TD9636_LAT TD9636_LON TD9636_STAGE TD9636_WIND TD9636_PRES TD9635_LAT TD9635_LON TD9635_WIND TD9635_PRES TD9635_ROCI NEUMANN_LAT NEUMANN_LON NEUMANN_CLASS NEUMANN_WIND NEUMANN_PRES MLC_LAT MLC_LON MLC_CLASS MLC_WIND MLC_PRES USA_GUST BOM_GUST BOM_GUST_PER REUNION_GUST REUNION_GUST_PER USA_SEAHGT USA_SEARAD_NE USA_SEARAD_SE USA_SEARAD_SW USA_SEARAD_NW STORM_SPEED STORM_DIR
1950098N05083 1950 21 NI BB NOT_NAMED 1950-04-07 18:00:00 TS 5.40000 83.1000 main 198 184 O________O____ jtwc_io IO011950 5.40000 83.1000 -1 5.40000 83.1000 TC 4 0
1950098N05083 1950 21 NI BB NOT_NAMED 1950-04-07 21:00:00 TS 5.60250 83.0775 main 184 173 P________P____ IO011950 5.60250 83.0775 -1 5.60250 83.0775 TC 4 0
1950098N05083 1950 21 NI BB NOT_NAMED 1950-04-08 00:00:00 TS 5.80000 83.1000 main 173 168 O________O____ jtwc_io IO011950 5.80000 83.1000 -1 5.80000 83.1000 TC 25 4 16
1950098N05083 1950 21 NI BB NOT_NAMED 1950-04-08 03:00:00 TS 5.99334 83.1933 main 175 171 P________PO___ IO011950 5.99251 83.1925 -1 5.99251 83.1925 TC 25 6.00000 83.2000 1 5 26
1950098N05083 1950 21 NI BB NOT_NAMED 1950-04-08 06:00:00 TS 6.21407 83.2972 main 178 168 O________OP___ jtwc_io IO011950 6.20000 83.3000 -1 6.20000 83.3000 TC 25 6.27033 83.2858 1 5 18
1950098N05083 1950 21 NI BB NOT_NAMED 1950-04-08 09:00:00 TS 6.46705 83.3547 main 175 169 P________PP___ IO011950 6.44249 83.3500 -1 6.44249 83.3500 TC 25 6.53253 83.3672 1 5 13
1950098N05083 1950 21 NI BB NOT_NAMED 1950-04-08 12:00:00 TS 6.72615 83.4134 main 169 167 O________OP___ jtwc_io IO011950 6.70000 83.4000 -1 6.70000 83.4000 TC 25 6.77846 83.4401 1 5 16
1950098N05083 1950 21 NI BB NOT_NAMED 1950-04-08 15:00:00 TS 6.96667 83.5000 main 176 176 P________PO___ IO011950 6.95001 83.5000 -1 6.95001 83.5000 TC 25 7.00000 83.5000 1 5 20
1950098N05083 1950 21 NI BB NOT_NAMED 1950-04-08 18:00:00 TS 7.19853 83.5823 main 189 189 O________OP___ jtwc_io IO011950 7.20000 83.6000 -1 7.20000 83.6000 TC 25 7.19559 83.5468 1 5 16
1950098N05083 1950 21 NI BB NOT_NAMED 1950-04-08 21:00:00 TS 7.42497 83.6327 main 192 192 P________PP___ IO011950 7.44249 83.6500 -1 7.44249 83.6500 TC 25 7.38993 83.5979 1 5 13
1950098N05083 1950 21 NI BB NOT_NAMED 1950-04-09 00:00:00 TS 7.67143 83.6917 main 209 209 O________OP___ jtwc_io IO011950 7.70000 83.7000 -1 7.70000 83.7000 TC 25 7.61431 83.6751 1 5 16
1950098N05083 1950 21 NI BB NOT_NAMED 1950-04-09 03:00:00 TS 7.94165 83.7751 main 223 223 P________PO___ IO011950 7.96247 83.7626 -1 7.96247 83.7626 TC 25 7.90000 83.8000 1 7 21
1950098N05083 1950 21 NI BB NOT_NAMED 1950-04-09 06:00:00 TS 8.30054 83.9318 main 244 244 O________OP___ jtwc_io IO011950 8.30000 83.9000 -1 8.30000 83.9000 TC 25 8.30161 83.9954 1 9 26
1950098N05083 1950 21 NI BB NOT_NAMED 1950-04-09 09:00:00 TS 8.77755 84.1932 main 296 296 P________PP___ IO011950 8.78504 84.1699 -1 8.78504 84.1699 TC 25 8.76259 84.2397 1 11 30
1950098N05083 1950 21 NI BB NOT_NAMED 1950-04-09 12:00:00 TS 9.28075 84.5047 main 350 350 O________OP___ jtwc_io IO011950 9.30000 84.5000 -1 9.30000 84.5000 TC 25 9.24225 84.5142 1 11 33
1950098N05083 1950 21 NI BB NOT_NAMED 1950-04-09 15:00:00 TS 9.71498 84.8001 main 400 400 P________PO___ IO011950 9.72247 84.8001 -1 9.72247 84.8001 TC 25 9.70000 84.8000 1 10 35
1950098N05083 1950 21 NI BB NOT_NAMED 1950-04-09 18:00:00 TS 10.0997 85.0947 main 448 448 O________OP___ jtwc_io IO011950 10.1000 85.1000 -1 10.1000 85.1000 TC 25 10.0991 85.0840 1 10 38
1950098N05083 1950 21 NI BB NOT_NAMED 1950-04-09 21:00:00 TS 10.4658 85.4008 main 498 498 P________PP___ IO011950 10.4650 85.4150 -1 10.4650 85.4150 TC 25 10.4675 85.3724 1 9 40
1950098N05083 1950 21 NI BB NOT_NAMED 1950-04-10 00:00:00 TS 10.8007 85.6832 main 543 543 O________OP___ jtwc_io IO011950 10.8000 85.7000 -1 10.8000 85.7000 TC 25 10.8022 85.6496 1 8 38
1950098N05083 1950 21 NI BB NOT_NAMED 1950-04-10 03:00:00 TS 11.1150 85.9150 main 578 578 P________PO___ IO011950 11.1225 85.9225 -1 11.1225 85.9225 TC 25 11.1000 85.9000 1 7 35
1950098N05083 1950 21 NI BB NOT_NAMED 1950-04-10 06:00:00 TS 11.3896 86.1027 main 615 615 O________OP___ jtwc_io IO011950 11.4000 86.1000 -1 11.4000 86.1000 TC 25 11.3689 86.1081 1 6 35
1950098N05083 1950 21 NI BB NOT_NAMED 1950-04-10 09:00:00 TS 11.6108 86.2676 main 645 645 P________PP___ IO011950 11.6150 86.2576 -1 11.6150 86.2576 TC 25 11.6023 86.2878 1 5 36
1950098N05083 1950 21 NI BB NOT_NAMED 1950-04-10 12:00:00 TS 11.8032 86.4162 main 666 666 O________OP___ jtwc_io IO011950 11.8000 86.4000 -1 11.8000 86.4000 TC 25 11.8096 86.4486 1 5 37
1950098N05083 1950 21 NI BB NOT_NAMED 1950-04-10 15:00:00 TS 12.0050 86.5717 main 692 683 P________PO___ IO011950 12.0075 86.5575 -1 12.0075 86.5575 TC 25 12.0000 86.6000 1 5 36
1950098N05083 1950 21 NI BB NOT_NAMED 1950-04-10 18:00:00 TS 12.1923 86.7070 main 683 675 O________OP___ jtwc_io IO011950 12.2000 86.7000 -1 12.2000 86.7000 TC 25 12.1769 86.7210 1 4 32
1950098N05083 1950 21 NI BB NOT_NAMED 1950-04-10 21:00:00 TS 12.3473 86.7936 main 683 675 P________PP___ IO011950 12.3499 86.7701 -1 12.3499 86.7701 TC 25 12.3421 86.8406 1 4 35
1950098N05083 1950 21 NI BB NOT_NAMED 1950-04-11 00:00:00 TS 12.5037 86.9300 main 675 675 O________OP___ jtwc_io IO011950 12.5000 86.9000 -1 12.5000 86.9000 TC 25 12.5112 86.9899 1 5 50
1950098N05083 1950 21 NI BB NOT_NAMED 1950-04-11 03:00:00 TS 12.6850 87.2084 main 684 684 P________PO___ IO011950 12.6776 87.2125 -1 12.6776 87.2125 TC 25 12.7000 87.2000 1 7 57
1950098N05083 1950 21 NI BB NOT_NAMED 1950-04-11 06:00:00 TS 12.9122 87.5700 main 704 697 O________OP___ jtwc_io IO011950 12.9000 87.6000 -1 12.9000 87.6000 TC 25 12.9367 87.5101 1 9 54
1950098N05083 1950 21 NI BB NOT_NAMED 1950-04-11 09:00:00 TS 13.1975 87.9224 main 700 693 P________PP___ IO011950 13.1999 87.9425 -1 13.1999 87.9425 TC 25 13.1927 87.8822 1 9 51
1950098N05083 1950 21 NI BB NOT_NAMED 1950-04-11 12:00:00 TS 13.4841 88.2961 main 693 644 O________OP___ jtwc_io IO011950 13.5000 88.3000 -1 13.5000 88.3000 TC 25 13.4523 88.2883 1 9 56
1950098N05083 1950 21 NI BB NOT_NAMED 1950-04-11 15:00:00 TS 13.7100 88.7001 main 644 596 P________PO___ IO011950 13.7150 88.7001 -1 13.7150 88.7001 TC 25 13.7000 88.7000 1 9 61
1950098N05083 1950 21 NI BB NOT_NAMED 1950-04-11 18:00:00 TS 13.9096 89.0979 main 596 557 O________OP___ jtwc_io IO011950 13.9000 89.1000 -1 13.9000 89.1000 TC 25 13.9241 89.0947 1 8 62
1950098N05083 1950 21 NI BB NOT_NAMED 1950-04-11 21:00:00 TS 14.1090 89.4666 main 547 509 P________PP___ IO011950 14.0951 89.4624 -1 14.0951 89.4624 TC 25 14.1276 89.4723 1 8 60
1950098N05083 1950 21 NI BB NOT_NAMED 1950-04-12 00:00:00 TS 14.3087 89.8194 main 509 460 O________OP___ jtwc_io IO011950 14.3000 89.8000 -1 14.3000 89.8000 TC 25 14.3174 89.8388 1 8 61
1950098N05083 1950 21 NI BB NOT_NAMED 1950-04-12 03:00:00 NR 14.5000 90.2000 main 460 __________O___ IO011950 -1 TC 14.5000 90.2000 1 8 63

IBTrACS Databaseについて

本データベースは、米国NOAAが公開する1842年以降の世界の熱帯低気圧のベストトラックデータアーカイブInternational Best Track Archive for Climate Stewardship (IBTrACS)を、ウェブで閲覧しやすい形式に変換したものです。

最終更新日:2021-11-26